sensor_id;sensor_type;location;lat;lon;timestamp;temperature;humidity
1005;DHT22;491;53.480;10.174;2023-07-13T00:01:27;19.10;99.90
1005;DHT22;491;53.480;10.174;2023-07-13T00:03:56;19.10;99.90
1005;DHT22;491;53.480;10.174;2023-07-13T00:06:22;19.00;99.90
1005;DHT22;491;53.480;10.174;2023-07-13T00:08:48;18.90;99.90
1005;DHT22;491;53.480;10.174;2023-07-13T00:11:15;18.90;99.90
1005;DHT22;491;53.480;10.174;2023-07-13T00:13:41;18.80;99.90
1005;DHT22;491;53.480;10.174;2023-07-13T00:16:08;18.70;99.90
1005;DHT22;491;53.480;10.174;2023-07-13T00:18:34;18.60;99.90
1005;DHT22;491;53.480;10.174;2023-07-13T00:20:59;18.60;99.90
1005;DHT22;491;53.480;10.174;2023-07-13T00:23:42;18.50;99.90
1005;DHT22;491;53.480;10.174;2023-07-13T00:26:10;18.50;99.90
1005;DHT22;491;53.480;10.174;2023-07-13T00:28:36;18.40;99.90
1005;DHT22;491;53.480;10.174;2023-07-13T00:31:02;18.30;99.90
1005;DHT22;491;53.480;10.174;2023-07-13T00:33:29;18.30;99.90
1005;DHT22;491;53.480;10.174;2023-07-13T00:35:55;18.30;99.90
1005;DHT22;491;53.480;10.174;2023-07-13T00:38:22;18.30;99.90
1005;DHT22;491;53.480;10.174;2023-07-13T00:40:47;18.20;99.90
1005;DHT22;491;53.480;10.174;2023-07-13T00:43:22;18.30;99.90
1005;DHT22;491;53.480;10.174;2023-07-13T00:48:17;18.30;99.90
1005;DHT22;491;53.480;10.174;2023-07-13T00:50:44;18.30;99.90
1005;DHT22;491;53.480;10.174;2023-07-13T00:53:12;18.30;99.90
1005;DHT22;491;53.480;10.174;2023-07-13T00:55:38;18.30;99.90
1005;DHT22;491;53.480;10.174;2023-07-13T00:58:05;18.30;99.90
1005;DHT22;491;53.480;10.174;2023-07-13T01:00:34;18.30;99.90
1005;DHT22;491;53.480;10.174;2023-07-13T01:03:00;18.30;99.90
1005;DHT22;491;53.480;10.174;2023-07-13T01:05:30;18.30;99.90
1005;DHT22;491;53.480;10.174;2023-07-13T01:07:57;18.30;99.90
1005;DHT22;491;53.480;10.174;2023-07-13T01:10:23;18.30;99.90
1005;DHT22;491;53.480;10.174;2023-07-13T01:12:48;18.30;99.90
1005;DHT22;491;53.480;10.174;2023-07-13T01:15:34;18.20;99.90
1005;DHT22;491;53.480;10.174;2023-07-13T01:18:00;18.20;99.90
1005;DHT22;491;53.480;10.174;2023-07-13T01:20:27;18.20;99.90
1005;DHT22;491;53.480;10.174;2023-07-13T01:22:52;18.10;99.90
1005;DHT22;491;53.480;10.174;2023-07-13T01:25:19;18.10;99.90
1005;DHT22;491;53.480;10.174;2023-07-13T01:27:44;18.00;99.90
1005;DHT22;491;53.480;10.174;2023-07-13T01:30:10;18.00;99.90
1005;DHT22;491;53.480;10.174;2023-07-13T01:32:35;18.00;99.90
1005;DHT22;491;53.480;10.174;2023-07-13T01:35:02;18.00;99.90
1005;DHT22;491;53.480;10.174;2023-07-13T01:37:27;18.00;99.90
1005;DHT22;491;53.480;10.174;2023-07-13T01:39:57;17.90;99.90
1005;DHT22;491;53.480;10.174;2023-07-13T01:42:23;17.90;99.90
1005;DHT22;491;53.480;10.174;2023-07-13T01:44:48;17.90;99.90
1005;DHT22;491;53.480;10.174;2023-07-13T01:47:14;17.90;99.90
1005;DHT22;491;53.480;10.174;2023-07-13T01:49:39;17.90;99.90
1005;DHT22;491;53.480;10.174;2023-07-13T01:52:05;17.80;99.90
1005;DHT22;491;53.480;10.174;2023-07-13T01:54:30;17.80;99.90
1005;DHT22;491;53.480;10.174;2023-07-13T01:56:58;17.80;99.90
1005;DHT22;491;53.480;10.174;2023-07-13T01:59:24;17.80;99.90
1005;DHT22;491;53.480;10.174;2023-07-13T02:01:50;17.70;99.90
1005;DHT22;491;53.480;10.174;2023-07-13T02:04:18;17.70;99.90
1005;DHT22;491;53.480;10.174;2023-07-13T02:06:43;17.60;99.90
1005;DHT22;491;53.480;10.174;2023-07-13T02:09:09;17.60;99.90
1005;DHT22;491;53.480;10.174;2023-07-13T02:11:35;17.60;99.90
1005;DHT22;491;53.480;10.174;2023-07-13T02:14:01;17.60;99.90
1005;DHT22;491;53.480;10.174;2023-07-13T02:16:30;17.60;99.90
1005;DHT22;491;53.480;10.174;2023-07-13T02:18:56;17.50;99.90
1005;DHT22;491;53.480;10.174;2023-07-13T02:21:22;17.60;99.90
1005;DHT22;491;53.480;10.174;2023-07-13T02:23:48;17.50;99.90
1005;DHT22;491;53.480;10.174;2023-07-13T02:26:14;17.40;99.90
1005;DHT22;491;53.480;10.174;2023-07-13T02:28:40;17.40;99.90
1005;DHT22;491;53.480;10.174;2023-07-13T02:31:07;17.30;99.90
1005;DHT22;491;53.480;10.174;2023-07-13T02:33:33;17.30;99.90
1005;DHT22;491;53.480;10.174;2023-07-13T02:35:58;17.30;99.90
1005;DHT22;491;53.480;10.174;2023-07-13T02:38:24;17.30;99.90
1005;DHT22;491;53.480;10.174;2023-07-13T02:40:50;17.30;99.90
1005;DHT22;491;53.480;10.174;2023-07-13T02:43:15;17.30;99.90
1005;DHT22;491;53.480;10.174;2023-07-13T02:45:44;17.30;99.90
1005;DHT22;491;53.480;10.174;2023-07-13T02:48:09;17.30;99.90
1005;DHT22;491;53.480;10.174;2023-07-13T02:50:35;17.30;99.90
1005;DHT22;491;53.480;10.174;2023-07-13T02:53:00;17.30;99.90
1005;DHT22;491;53.480;10.174;2023-07-13T02:55:26;17.20;99.90
1005;DHT22;491;53.480;10.174;2023-07-13T02:57:51;17.20;99.90
1005;DHT22;491;53.480;10.174;2023-07-13T03:00:17;17.10;99.90
1005;DHT22;491;53.480;10.174;2023-07-13T03:02:42;17.10;99.90
1005;DHT22;491;53.480;10.174;2023-07-13T03:05:09;17.10;99.90
1005;DHT22;491;53.480;10.174;2023-07-13T03:07:38;17.10;99.90
1005;DHT22;491;53.480;10.174;2023-07-13T03:10:08;17.10;99.90
1005;DHT22;491;53.480;10.174;2023-07-13T03:12:34;17.00;99.90
1005;DHT22;491;53.480;10.174;2023-07-13T03:14:59;17.00;99.90
1005;DHT22;491;53.480;10.174;2023-07-13T03:17:25;17.10;99.90
1005;DHT22;491;53.480;10.174;2023-07-13T03:19:50;17.00;99.90
1005;DHT22;491;53.480;10.174;2023-07-13T03:22:17;17.00;99.90
1005;DHT22;491;53.480;10.174;2023-07-13T03:24:44;17.00;99.90
1005;DHT22;491;53.480;10.174;2023-07-13T03:27:09;17.00;99.90
1005;DHT22;491;53.480;10.174;2023-07-13T03:29:35;17.00;99.90
1005;DHT22;491;53.480;10.174;2023-07-13T03:32:00;17.00;99.90
1005;DHT22;491;53.480;10.174;2023-07-13T03:34:26;16.90;99.90
1005;DHT22;491;53.480;10.174;2023-07-13T03:36:54;17.00;99.90
1005;DHT22;491;53.480;10.174;2023-07-13T03:39:20;16.90;99.90
1005;DHT22;491;53.480;10.174;2023-07-13T03:41:46;16.90;99.90
1005;DHT22;491;53.480;10.174;2023-07-13T03:44:11;16.90;99.90
1005;DHT22;491;53.480;10.174;2023-07-13T03:46:37;16.90;99.90
1005;DHT22;491;53.480;10.174;2023-07-13T03:49:04;16.90;99.90
1005;DHT22;491;53.480;10.174;2023-07-13T03:51:30;16.90;99.90
1005;DHT22;491;53.480;10.174;2023-07-13T03:53:56;16.80;99.90
1005;DHT22;491;53.480;10.174;2023-07-13T03:56:21;16.80;99.90
1005;DHT22;491;53.480;10.174;2023-07-13T03:58:49;16.80;99.90
1005;DHT22;491;53.480;10.174;2023-07-13T04:01:15;16.80;99.90
1005;DHT22;491;53.480;10.174;2023-07-13T04:03:41;16.80;99.90
1005;DHT22;491;53.480;10.174;2023-07-13T04:06:12;16.80;99.90
1005;DHT22;491;53.480;10.174;2023-07-13T04:08:40;16.80;99.90
1005;DHT22;491;53.480;10.174;2023-07-13T04:11:07;16.70;99.90
1005;DHT22;491;53.480;10.174;2023-07-13T04:13:32;16.70;99.90
1005;DHT22;491;53.480;10.174;2023-07-13T04:15:58;16.80;99.90
1005;DHT22;491;53.480;10.174;2023-07-13T04:18:23;16.80;99.90
1005;DHT22;491;53.480;10.174;2023-07-13T04:20:49;16.70;99.90
1005;DHT22;491;53.480;10.174;2023-07-13T04:23:19;16.70;99.90
1005;DHT22;491;53.480;10.174;2023-07-13T04:25:48;16.80;99.90
1005;DHT22;491;53.480;10.174;2023-07-13T04:28:15;16.90;99.90
1005;DHT22;491;53.480;10.174;2023-07-13T04:30:41;16.90;99.90
1005;DHT22;491;53.480;10.174;2023-07-13T04:33:06;16.90;99.90
1005;DHT22;491;53.480;10.174;2023-07-13T04:35:34;17.00;99.90
1005;DHT22;491;53.480;10.174;2023-07-13T04:38:00;17.00;99.90
1005;DHT22;491;53.480;10.174;2023-07-13T04:40:27;17.10;99.90
1005;DHT22;491;53.480;10.174;2023-07-13T04:42:52;17.10;99.90
1005;DHT22;491;53.480;10.174;2023-07-13T04:45:18;17.20;99.90
1005;DHT22;491;53.480;10.174;2023-07-13T04:47:43;17.20;99.90
1005;DHT22;491;53.480;10.174;2023-07-13T04:50:09;17.30;99.90
1005;DHT22;491;53.480;10.174;2023-07-13T04:52:36;17.30;99.90
1005;DHT22;491;53.480;10.174;2023-07-13T04:55:02;17.40;99.90
1005;DHT22;491;53.480;10.174;2023-07-13T04:57:27;17.30;99.90
1005;DHT22;491;53.480;10.174;2023-07-13T04:59:53;17.40;99.90
1005;DHT22;491;53.480;10.174;2023-07-13T05:02:20;17.40;99.90
1005;DHT22;491;53.480;10.174;2023-07-13T05:04:47;17.40;99.90
1005;DHT22;491;53.480;10.174;2023-07-13T05:07:13;17.40;99.90
1005;DHT22;491;53.480;10.174;2023-07-13T05:09:38;17.50;99.90
1005;DHT22;491;53.480;10.174;2023-07-13T05:12:06;17.50;99.90
1005;DHT22;491;53.480;10.174;2023-07-13T05:14:32;17.50;99.90
1005;DHT22;491;53.480;10.174;2023-07-13T05:16:57;17.60;99.90
1005;DHT22;491;53.480;10.174;2023-07-13T05:19:23;17.60;99.90
1005;DHT22;491;53.480;10.174;2023-07-13T05:21:48;17.60;99.90
1005;DHT22;491;53.480;10.174;2023-07-13T05:24:13;17.70;99.90
1005;DHT22;491;53.480;10.174;2023-07-13T05:26:39;17.70;99.90
1005;DHT22;491;53.480;10.174;2023-07-13T05:29:04;17.90;99.90
1005;DHT22;491;53.480;10.174;2023-07-13T05:31:30;17.90;99.90
1005;DHT22;491;53.480;10.174;2023-07-13T05:33:55;18.00;99.90
1005;DHT22;491;53.480;10.174;2023-07-13T05:36:21;18.10;99.90
1005;DHT22;491;53.480;10.174;2023-07-13T05:38:46;18.20;99.90
1005;DHT22;491;53.480;10.174;2023-07-13T05:41:12;18.40;99.90
1005;DHT22;491;53.480;10.174;2023-07-13T05:43:37;18.60;99.90
1005;DHT22;491;53.480;10.174;2023-07-13T05:46:03;18.90;99.90
1005;DHT22;491;53.480;10.174;2023-07-13T05:48:28;19.20;99.90
1005;DHT22;491;53.480;10.174;2023-07-13T05:50:54;19.50;99.90
1005;DHT22;491;53.480;10.174;2023-07-13T05:53:19;19.60;99.90
1005;DHT22;491;53.480;10.174;2023-07-13T05:55:46;19.90;99.90
1005;DHT22;491;53.480;10.174;2023-07-13T05:58:13;20.00;99.90
1005;DHT22;491;53.480;10.174;2023-07-13T06:00:39;20.10;39.10
1005;DHT22;491;53.480;10.174;2023-07-13T06:03:05;20.20;1.40
1005;DHT22;491;53.480;10.174;2023-07-13T06:05:32;20.30;1.40
1005;DHT22;491;53.480;10.174;2023-07-13T06:07:59;20.40;1.00
1005;DHT22;491;53.480;10.174;2023-07-13T06:10:24;20.50;1.00
1005;DHT22;491;53.480;10.174;2023-07-13T06:12:50;20.70;1.00
1005;DHT22;491;53.480;10.174;2023-07-13T06:15:15;20.80;1.00
1005;DHT22;491;53.480;10.174;2023-07-13T06:17:41;20.90;1.00
1005;DHT22;491;53.480;10.174;2023-07-13T06:20:07;20.90;99.90
1005;DHT22;491;53.480;10.174;2023-07-13T06:22:32;20.90;1.00
1005;DHT22;491;53.480;10.174;2023-07-13T06:24:58;21.10;1.00
1005;DHT22;491;53.480;10.174;2023-07-13T06:27:23;21.10;1.00
1005;DHT22;491;53.480;10.174;2023-07-13T06:29:49;21.30;1.00
1005;DHT22;491;53.480;10.174;2023-07-13T06:32:14;21.50;99.90
1005;DHT22;491;53.480;10.174;2023-07-13T06:34:40;21.70;99.90
1005;DHT22;491;53.480;10.174;2023-07-13T06:37:05;21.90;99.90
1005;DHT22;491;53.480;10.174;2023-07-13T06:39:32;22.20;1.00
1005;DHT22;491;53.480;10.174;2023-07-13T06:41:57;22.40;8.20
1005;DHT22;491;53.480;10.174;2023-07-13T06:44:22;22.60;99.90
1005;DHT22;491;53.480;10.174;2023-07-13T06:46:48;22.70;99.90
1005;DHT22;491;53.480;10.174;2023-07-13T06:49:13;22.70;1.00
1005;DHT22;491;53.480;10.174;2023-07-13T06:51:39;22.60;99.90
1005;DHT22;491;53.480;10.174;2023-07-13T06:54:04;22.70;1.00
1005;DHT22;491;53.480;10.174;2023-07-13T06:56:30;22.80;99.90
1005;DHT22;491;53.480;10.174;2023-07-13T06:58:55;23.00;99.90
1005;DHT22;491;53.480;10.174;2023-07-13T07:01:21;23.10;94.90
1005;DHT22;491;53.480;10.174;2023-07-13T07:03:46;23.20;1.00
1005;DHT22;491;53.480;10.174;2023-07-13T07:06:22;23.10;1.00
1005;DHT22;491;53.480;10.174;2023-07-13T07:08:52;22.90;99.90
1005;DHT22;491;53.480;10.174;2023-07-13T07:11:25;22.80;1.00
1005;DHT22;491;53.480;10.174;2023-07-13T07:13:52;22.80;20.30
1005;DHT22;491;53.480;10.174;2023-07-13T07:16:19;22.70;99.90
1005;DHT22;491;53.480;10.174;2023-07-13T07:18:45;22.70;99.90
1005;DHT22;491;53.480;10.174;2023-07-13T07:21:11;22.60;1.00
1005;DHT22;491;53.480;10.174;2023-07-13T07:23:36;22.70;1.00
1005;DHT22;491;53.480;10.174;2023-07-13T07:26:02;22.80;99.90
1005;DHT22;491;53.480;10.174;2023-07-13T07:28:28;23.00;99.90
1005;DHT22;491;53.480;10.174;2023-07-13T07:30:58;23.20;99.90
1005;DHT22;491;53.480;10.174;2023-07-13T07:33:24;23.50;99.90
1005;DHT22;491;53.480;10.174;2023-07-13T07:35:50;23.90;1.00
1005;DHT22;491;53.480;10.174;2023-07-13T07:38:16;24.30;1.00
1005;DHT22;491;53.480;10.174;2023-07-13T07:40:42;24.70;1.00
1005;DHT22;491;53.480;10.174;2023-07-13T07:43:08;25.00;1.00
1005;DHT22;491;53.480;10.174;2023-07-13T07:45:34;25.60;99.90
1005;DHT22;491;53.480;10.174;2023-07-13T07:48:00;26.20;99.90
1005;DHT22;491;53.480;10.174;2023-07-13T07:50:26;26.90;99.90
1005;DHT22;491;53.480;10.174;2023-07-13T07:52:52;27.30;99.90
1005;DHT22;491;53.480;10.174;2023-07-13T07:55:18;27.50;98.40
1005;DHT22;491;53.480;10.174;2023-07-13T07:57:43;27.60;61.10
1005;DHT22;491;53.480;10.174;2023-07-13T08:00:09;27.40;38.00
1005;DHT22;491;53.480;10.174;2023-07-13T08:02:35;27.10;30.20
1005;DHT22;491;53.480;10.174;2023-07-13T08:05:00;26.60;28.60
1005;DHT22;491;53.480;10.174;2023-07-13T08:07:26;26.10;37.80
1005;DHT22;491;53.480;10.174;2023-07-13T08:09:54;25.50;56.90
1005;DHT22;491;53.480;10.174;2023-07-13T08:12:20;25.10;96.20
1005;DHT22;491;53.480;10.174;2023-07-13T08:14:49;25.00;99.90
1005;DHT22;491;53.480;10.174;2023-07-13T08:17:19;25.40;99.90
1005;DHT22;491;53.480;10.174;2023-07-13T08:19:44;26.00;99.90
1005;DHT22;491;53.480;10.174;2023-07-13T08:22:10;26.60;99.90
1005;DHT22;491;53.480;10.174;2023-07-13T08:24:35;27.20;99.90
1005;DHT22;491;53.480;10.174;2023-07-13T08:27:01;27.70;72.10
1005;DHT22;491;53.480;10.174;2023-07-13T08:29:26;28.30;39.10
1005;DHT22;491;53.480;10.174;2023-07-13T08:31:52;28.80;14.80
1005;DHT22;491;53.480;10.174;2023-07-13T08:34:20;29.20;3.00
1005;DHT22;491;53.480;10.174;2023-07-13T08:36:46;29.10;1.00
1005;DHT22;491;53.480;10.174;2023-07-13T08:39:11;29.20;1.00
1005;DHT22;491;53.480;10.174;2023-07-13T08:41:37;29.20;1.00
1005;DHT22;491;53.480;10.174;2023-07-13T08:44:04;29.30;1.00
1005;DHT22;491;53.480;10.174;2023-07-13T08:46:39;29.40;1.00
1005;DHT22;491;53.480;10.174;2023-07-13T08:49:17;29.40;1.00
1005;DHT22;491;53.480;10.174;2023-07-13T08:51:48;29.30;1.00
1005;DHT22;491;53.480;10.174;2023-07-13T08:54:31;29.10;1.00
1005;DHT22;491;53.480;10.174;2023-07-13T08:57:00;28.60;1.00
1005;DHT22;491;53.480;10.174;2023-07-13T08:59:29;29.00;1.00
1005;DHT22;491;53.480;10.174;2023-07-13T09:02:20;29.60;1.00
1005;DHT22;491;53.480;10.174;2023-07-13T09:05:03;29.90;1.00
1005;DHT22;491;53.480;10.174;2023-07-13T09:10:20;29.00;1.00
1005;DHT22;491;53.480;10.174;2023-07-13T09:13:27;29.30;1.00
1005;DHT22;491;53.480;10.174;2023-07-13T09:15:54;29.30;1.00
1005;DHT22;491;53.480;10.174;2023-07-13T09:18:30;29.50;1.00
1005;DHT22;491;53.480;10.174;2023-07-13T09:21:03;30.00;1.00
1005;DHT22;491;53.480;10.174;2023-07-13T09:23:31;30.40;1.00
1005;DHT22;491;53.480;10.174;2023-07-13T09:26:08;30.80;1.00
1005;DHT22;491;53.480;10.174;2023-07-13T09:28:41;31.40;1.00
1005;DHT22;491;53.480;10.174;2023-07-13T09:33:39;32.40;1.00
1005;DHT22;491;53.480;10.174;2023-07-13T09:36:22;31.90;1.00
1005;DHT22;491;53.480;10.174;2023-07-13T09:38:59;31.40;1.00
1005;DHT22;491;53.480;10.174;2023-07-13T09:41:59;31.10;1.00
1005;DHT22;491;53.480;10.174;2023-07-13T09:44:32;31.00;1.00
1005;DHT22;491;53.480;10.174;2023-07-13T09:46:59;30.50;1.00
1005;DHT22;491;53.480;10.174;2023-07-13T09:49:34;30.10;1.00
1005;DHT22;491;53.480;10.174;2023-07-13T09:52:04;29.90;1.00
1005;DHT22;491;53.480;10.174;2023-07-13T09:54:33;29.60;1.00
1005;DHT22;491;53.480;10.174;2023-07-13T09:57:00;29.00;1.00
1005;DHT22;491;53.480;10.174;2023-07-13T09:59:35;28.60;1.00
1005;DHT22;491;53.480;10.174;2023-07-13T10:02:01;28.30;1.00
1005;DHT22;491;53.480;10.174;2023-07-13T10:04:32;28.50;1.00
1005;DHT22;491;53.480;10.174;2023-07-13T10:07:11;28.80;1.00
1005;DHT22;491;53.480;10.174;2023-07-13T10:09:38;29.50;1.00
1005;DHT22;491;53.480;10.174;2023-07-13T10:12:12;30.20;1.00
1005;DHT22;491;53.480;10.174;2023-07-13T10:14:41;31.20;1.00
1005;DHT22;491;53.480;10.174;2023-07-13T10:17:12;31.80;1.00
1005;DHT22;491;53.480;10.174;2023-07-13T10:19:42;32.70;1.00
1005;DHT22;491;53.480;10.174;2023-07-13T10:22:27;33.10;1.00
1005;DHT22;491;53.480;10.174;2023-07-13T10:24:55;33.40;1.00
1005;DHT22;491;53.480;10.174;2023-07-13T10:27:33;33.60;1.00
1005;DHT22;491;53.480;10.174;2023-07-13T10:32:27;33.70;1.00
1005;DHT22;491;53.480;10.174;2023-07-13T10:34:53;33.80;1.00
1005;DHT22;491;53.480;10.174;2023-07-13T10:37:28;34.00;1.00
1005;DHT22;491;53.480;10.174;2023-07-13T10:39:56;33.40;1.00
1005;DHT22;491;53.480;10.174;2023-07-13T10:42:36;32.60;1.00
1005;DHT22;491;53.480;10.174;2023-07-13T10:45:21;32.00;1.00
1005;DHT22;491;53.480;10.174;2023-07-13T10:47:48;31.00;1.00
1005;DHT22;491;53.480;10.174;2023-07-13T10:50:20;30.00;1.00
1005;DHT22;491;53.480;10.174;2023-07-13T10:52:51;29.20;1.00
1005;DHT22;491;53.480;10.174;2023-07-13T10:58:22;28.40;1.00
1005;DHT22;491;53.480;10.174;2023-07-13T11:01:03;28.60;1.00
1005;DHT22;491;53.480;10.174;2023-07-13T11:03:29;29.30;1.00
1005;DHT22;491;53.480;10.174;2023-07-13T11:11:35;32.30;1.00
1005;DHT22;491;53.480;10.174;2023-07-13T11:14:25;32.40;1.00
1005;DHT22;491;53.480;10.174;2023-07-13T11:16:51;32.40;1.00
1005;DHT22;491;53.480;10.174;2023-07-13T11:24:54;32.70;1.00
1005;DHT22;491;53.480;10.174;2023-07-13T11:27:44;31.70;1.00
1005;DHT22;491;53.480;10.174;2023-07-13T11:33:11;30.50;1.00
1005;DHT22;491;53.480;10.174;2023-07-13T11:35:51;30.40;1.00
1005;DHT22;491;53.480;10.174;2023-07-13T11:40:55;31.20;1.00
1005;DHT22;491;53.480;10.174;2023-07-13T11:43:23;31.90;1.00
1005;DHT22;491;53.480;10.174;2023-07-13T11:45:50;32.60;1.00
1005;DHT22;491;53.480;10.174;2023-07-13T11:48:21;32.90;1.00
1005;DHT22;491;53.480;10.174;2023-07-13T11:50:53;33.00;1.00
1005;DHT22;491;53.480;10.174;2023-07-13T11:53:21;33.50;1.00
1005;DHT22;491;53.480;10.174;2023-07-13T11:55:47;33.70;1.00
1005;DHT22;491;53.480;10.174;2023-07-13T11:58:19;33.60;1.00
1005;DHT22;491;53.480;10.174;2023-07-13T12:00:46;33.80;1.00
1005;DHT22;491;53.480;10.174;2023-07-13T12:03:13;34.00;1.00
1005;DHT22;491;53.480;10.174;2023-07-13T12:06:01;34.50;1.00
1005;DHT22;491;53.480;10.174;2023-07-13T12:08:28;34.80;1.00
1005;DHT22;491;53.480;10.174;2023-07-13T12:10:59;34.60;1.00
1005;DHT22;491;53.480;10.174;2023-07-13T12:13:27;34.60;1.00
1005;DHT22;491;53.480;10.174;2023-07-13T12:15:54;34.40;1.00
1005;DHT22;491;53.480;10.174;2023-07-13T12:18:22;33.90;1.00
1005;DHT22;491;53.480;10.174;2023-07-13T12:20:50;33.70;1.00
1005;DHT22;491;53.480;10.174;2023-07-13T12:23:29;33.90;1.00
1005;DHT22;491;53.480;10.174;2023-07-13T12:25:56;33.30;1.00
1005;DHT22;491;53.480;10.174;2023-07-13T12:28:44;32.70;1.00
1005;DHT22;491;53.480;10.174;2023-07-13T12:31:40;32.00;1.00
1005;DHT22;491;53.480;10.174;2023-07-13T12:34:13;31.10;1.00
1005;DHT22;491;53.480;10.174;2023-07-13T12:36:58;30.00;1.00
1005;DHT22;491;53.480;10.174;2023-07-13T12:39:44;28.60;1.00
1005;DHT22;491;53.480;10.174;2023-07-13T12:42:28;27.40;1.00
1005;DHT22;491;53.480;10.174;2023-07-13T12:48:06;25.80;1.00
1005;DHT22;491;53.480;10.174;2023-07-13T12:50:40;25.10;1.00
1005;DHT22;491;53.480;10.174;2023-07-13T12:53:14;24.60;59.90
1005;DHT22;491;53.480;10.174;2023-07-13T12:55:50;24.20;99.90
1005;DHT22;491;53.480;10.174;2023-07-13T12:58:38;23.90;1.00
1005;DHT22;491;53.480;10.174;2023-07-13T13:01:05;23.60;1.00
1005;DHT22;491;53.480;10.174;2023-07-13T13:03:31;23.30;7.20
1005;DHT22;491;53.480;10.174;2023-07-13T13:06:03;23.20;1.00
1005;DHT22;491;53.480;10.174;2023-07-13T13:08:34;23.00;30.90
1005;DHT22;491;53.480;10.174;2023-07-13T13:11:01;22.90;99.90
1005;DHT22;491;53.480;10.174;2023-07-13T13:13:27;22.90;1.00
1005;DHT22;491;53.480;10.174;2023-07-13T13:15:53;22.80;1.00
1005;DHT22;491;53.480;10.174;2023-07-13T13:18:23;22.80;1.00
1005;DHT22;491;53.480;10.174;2023-07-13T13:20:50;22.90;99.90
1005;DHT22;491;53.480;10.174;2023-07-13T13:23:18;22.90;99.90
1005;DHT22;491;53.480;10.174;2023-07-13T13:25:49;23.10;1.00
1005;DHT22;491;53.480;10.174;2023-07-13T13:28:17;23.20;99.90
1005;DHT22;491;53.480;10.174;2023-07-13T13:30:44;23.30;1.00
1005;DHT22;491;53.480;10.174;2023-07-13T13:33:17;23.30;99.90
1005;DHT22;491;53.480;10.174;2023-07-13T13:35:43;23.30;1.00
1005;DHT22;491;53.480;10.174;2023-07-13T13:38:20;23.20;99.90
1005;DHT22;491;53.480;10.174;2023-07-13T13:40:47;23.10;99.90
1005;DHT22;491;53.480;10.174;2023-07-13T13:43:18;23.10;99.90
1005;DHT22;491;53.480;10.174;2023-07-13T13:45:45;23.30;99.90
1005;DHT22;491;53.480;10.174;2023-07-13T13:48:20;23.50;99.90
1005;DHT22;491;53.480;10.174;2023-07-13T13:50:48;23.70;99.90
1005;DHT22;491;53.480;10.174;2023-07-13T13:53:14;23.90;99.90
1005;DHT22;491;53.480;10.174;2023-07-13T13:55:40;24.00;99.90
1005;DHT22;491;53.480;10.174;2023-07-13T13:58:08;24.00;89.70
1005;DHT22;491;53.480;10.174;2023-07-13T14:00:34;23.90;45.80
1005;DHT22;491;53.480;10.174;2023-07-13T14:03:00;23.70;61.10
1005;DHT22;491;53.480;10.174;2023-07-13T14:05:26;23.50;68.70
1005;DHT22;491;53.480;10.174;2023-07-13T14:07:52;23.40;99.90
1005;DHT22;491;53.480;10.174;2023-07-13T14:10:19;23.40;99.90
1005;DHT22;491;53.480;10.174;2023-07-13T14:12:47;23.40;99.90
1005;DHT22;491;53.480;10.174;2023-07-13T14:15:26;23.30;99.90
1005;DHT22;491;53.480;10.174;2023-07-13T14:17:53;23.40;99.90
1005;DHT22;491;53.480;10.174;2023-07-13T14:20:21;23.40;99.90
1005;DHT22;491;53.480;10.174;2023-07-13T14:22:48;23.50;99.90
1005;DHT22;491;53.480;10.174;2023-07-13T14:25:15;23.60;99.90
1005;DHT22;491;53.480;10.174;2023-07-13T14:27:41;23.60;99.90
1005;DHT22;491;53.480;10.174;2023-07-13T14:30:15;23.70;99.90
1005;DHT22;491;53.480;10.174;2023-07-13T14:32:42;23.60;99.90
1005;DHT22;491;53.480;10.174;2023-07-13T14:35:11;23.60;99.90
1005;DHT22;491;53.480;10.174;2023-07-13T14:37:39;23.50;99.90
1005;DHT22;491;53.480;10.174;2023-07-13T14:40:15;23.50;99.90
1005;DHT22;491;53.480;10.174;2023-07-13T14:42:41;23.50;99.90
1005;DHT22;491;53.480;10.174;2023-07-13T14:45:15;23.50;99.90
1005;DHT22;491;53.480;10.174;2023-07-13T14:47:41;23.50;99.90
1005;DHT22;491;53.480;10.174;2023-07-13T14:50:20;23.60;99.90
1005;DHT22;491;53.480;10.174;2023-07-13T14:52:48;23.50;99.90
1005;DHT22;491;53.480;10.174;2023-07-13T14:55:16;23.60;99.90
1005;DHT22;491;53.480;10.174;2023-07-13T14:57:42;23.70;99.90
1005;DHT22;491;53.480;10.174;2023-07-13T15:00:19;23.80;99.90
1005;DHT22;491;53.480;10.174;2023-07-13T15:02:50;23.90;99.90
1005;DHT22;491;53.480;10.174;2023-07-13T15:05:18;23.90;99.90
1005;DHT22;491;53.480;10.174;2023-07-13T15:07:45;24.00;99.90
1005;DHT22;491;53.480;10.174;2023-07-13T15:10:18;24.00;99.90
1005;DHT22;491;53.480;10.174;2023-07-13T15:12:44;24.10;99.90
1005;DHT22;491;53.480;10.174;2023-07-13T15:15:10;24.10;99.90
1005;DHT22;491;53.480;10.174;2023-07-13T15:17:38;24.10;99.90
1005;DHT22;491;53.480;10.174;2023-07-13T15:20:30;24.20;99.90
1005;DHT22;491;53.480;10.174;2023-07-13T15:22:56;24.30;90.20
1005;DHT22;491;53.480;10.174;2023-07-13T15:25:25;24.20;50.70
1005;DHT22;491;53.480;10.174;2023-07-13T15:27:52;24.20;49.00
1005;DHT22;491;53.480;10.174;2023-07-13T15:30:18;24.30;58.20
1005;DHT22;491;53.480;10.174;2023-07-13T15:32:44;24.40;71.40
1005;DHT22;491;53.480;10.174;2023-07-13T15:35:22;24.40;56.10
1005;DHT22;491;53.480;10.174;2023-07-13T15:37:48;24.40;93.70
1005;DHT22;491;53.480;10.174;2023-07-13T15:40:15;24.50;85.40
1005;DHT22;491;53.480;10.174;2023-07-13T15:42:42;24.60;95.70
1005;DHT22;491;53.480;10.174;2023-07-13T15:45:19;24.60;70.60
1005;DHT22;491;53.480;10.174;2023-07-13T15:47:46;24.60;55.40
1005;DHT22;491;53.480;10.174;2023-07-13T15:50:20;24.50;29.50
1005;DHT22;491;53.480;10.174;2023-07-13T15:52:50;24.30;20.40
1005;DHT22;491;53.480;10.174;2023-07-13T15:55:16;24.10;17.50
1005;DHT22;491;53.480;10.174;2023-07-13T15:57:47;23.80;22.90
1005;DHT22;491;53.480;10.174;2023-07-13T16:00:18;23.70;28.90
1005;DHT22;491;53.480;10.174;2023-07-13T16:02:45;23.60;32.00
1005;DHT22;491;53.480;10.174;2023-07-13T16:05:11;23.60;29.40
1005;DHT22;491;53.480;10.174;2023-07-13T16:07:36;23.50;21.60
1005;DHT22;491;53.480;10.174;2023-07-13T16:10:02;23.40;30.00
1005;DHT22;491;53.480;10.174;2023-07-13T16:12:28;23.40;29.60
1005;DHT22;491;53.480;10.174;2023-07-13T16:14:53;23.40;54.50
1005;DHT22;491;53.480;10.174;2023-07-13T16:17:19;23.40;70.70
1005;DHT22;491;53.480;10.174;2023-07-13T16:19:45;23.40;74.10
1005;DHT22;491;53.480;10.174;2023-07-13T16:22:16;23.50;62.70
1005;DHT22;491;53.480;10.174;2023-07-13T16:24:42;23.50;25.30
1005;DHT22;491;53.480;10.174;2023-07-13T16:27:11;23.40;10.40
1005;DHT22;491;53.480;10.174;2023-07-13T16:29:36;23.40;3.60
1005;DHT22;491;53.480;10.174;2023-07-13T16:32:06;23.30;2.50
1005;DHT22;491;53.480;10.174;2023-07-13T16:34:33;23.30;14.40
1005;DHT22;491;53.480;10.174;2023-07-13T16:37:00;23.40;23.50
1005;DHT22;491;53.480;10.174;2023-07-13T16:39:28;23.40;22.60
1005;DHT22;491;53.480;10.174;2023-07-13T16:41:55;23.50;30.00
1005;DHT22;491;53.480;10.174;2023-07-13T16:44:22;23.60;42.10
1005;DHT22;491;53.480;10.174;2023-07-13T16:46:57;23.70;29.10
1005;DHT22;491;53.480;10.174;2023-07-13T16:49:34;23.80;18.90